GCRRGCLP

Guest
Details From GCRR - Lanzarote
To GCLP - Gran Canaria
Flight Number -
Tags decoded
Created
Modified
Stats Distance 112 nm / 207 km
Max Altitude 0 ft / 0 m
Waypoints 2
Social Downloads 0
Likes 0
Share VATSIM

Download

Looking for another format? Having issues loading an existing format? Contact us
Advertisement - Login to hide

Notes

Requested: GCRR LORPO GCLP Unmatched points: LORPO

Route

GCRR GCLP

ID Type Via Altitude Latitude Longitude Leg Dist Tot Dist Heading (true) Name
O GCRR APT - 0 ft / 0 m 28.94547˚ -13.60522˚ - 0 nm - Lanzarote
O GCLP APT - 0 ft / 0 m 27.93154˚ -15.38559˚ 112 nm 112 nm 237° / 237° Gran Canaria

Altitude Profile

Advertisement - Login to hide

GCRR

Details ICAO GCRR (ACE)
Name Lanzarote
Region Canary Islands
Timezone Atlantic/Canary (UTC+1.0)
Stats Elevation 0 ft / 0 m (AMSL)
Location 28.945466° -13.605223°
Runways 1
Magnetic Variation 3.927° W

METAR

GCRR 201800Z 33012KT 290V030 9999 FEW040 SCT045 20/11 Q1015

Decode

TAF

TAF AMD GCRR 201559Z 2015/2115 34016KT 9999 BKN040 TX24/2115Z TN16/2105Z BECMG 2019/2021 34006KT TEMPO 2015/2019 35015G25KT

Decode

Departure Runways

ID Width Length Bearing (true) Bearing (mag) Surface Threshold Offset Overrun Length
03 148 ft / 45 m 7,893 ft / 2,406 m 26.90° 30.83° Asphalt 197 ft / 60 m 197 ft / 60 m
21 148 ft / 45 m 7,893 ft / 2,406 m 206.91° 210.84° Asphalt 197 ft / 60 m 197 ft / 60 m

GCLP

Details ICAO GCLP (LPA)
Name Gran Canaria
Region Canary Islands
Timezone Atlantic/Canary (UTC+1.0)
Stats Elevation 77 ft / 23 m (AMSL)
Location 27.931544° -15.385592°
Runways 2
Magnetic Variation 4.635° W

METAR

GCLP 201800Z 01021KT 9999 FEW040 21/12 Q1015 NOSIG

Decode

TAF

TAF GCLP 201400Z 2015/2115 01020KT 9999 FEW030 TX23/2115Z TN16/2105Z PROB30 TEMPO 2015/2018 02020G30KT BECMG 2020/2022 34010KT

Decode

Destination Runways

ID Width Length Bearing (true) Bearing (mag) Surface Threshold Offset Overrun Length
03L 148 ft / 45 m 10,203 ft / 3,110 m 21.33° 25.96° Asphalt 0 ft / 0 m 656 ft / 200 m
03R 148 ft / 45 m 10,200 ft / 3,109 m 21.32° 25.95° Asphalt 0 ft / 0 m 673 ft / 205 m
21L 148 ft / 45 m 10,200 ft / 3,109 m 201.33° 205.96° Asphalt 0 ft / 0 m 689 ft / 210 m
21R 148 ft / 45 m 10,203 ft / 3,110 m 201.33° 205.96° Asphalt 0 ft / 0 m 755 ft / 230 m

Approach Navaids

Runway Type Ident Frequency Range Bearing (true) Bearing (mag) Slope Elevation
03L Localiser ILP 109.90 MHz 18 nm / 33 km 21.33° 25.97° - 77 ft / 23 m (AMSL)
03L Glidescope ILP 109.90 MHz 10 nm / 19 km 21.33° 25.97° 3.00° 102 ft / 31 m (AMSL)
03L DME ILP 109.90 MHz 18 nm / 33 km - - - 102 ft / 31 m (AMSL)
21R Localiser RLP 110.70 MHz 18 nm / 33 km 201.32° 205.96° - 77 ft / 23 m (AMSL)
21R Glidescope RLP 110.70 MHz 10 nm / 19 km 201.33° 205.97° 3.00° 77 ft / 23 m (AMSL)
21R DME RLP 110.70 MHz 18 nm / 33 km - - - 57 ft / 17 m (AMSL)

Popular Alternatives